sensor_id;sensor_type;location;lat;lon;timestamp;pressure;altitude;pressure_sealevel;temperature;humidity
55685;BME280;41883;49.544;8.646;2023-04-24T00:01:10;99412.69;;;11.42;nan
55685;BME280;41883;49.544;8.646;2023-04-24T00:03:35;99403.91;;;11.41;nan
55685;BME280;41883;49.544;8.646;2023-04-24T00:06:01;99405.09;;;11.39;nan
55685;BME280;41883;49.544;8.646;2023-04-24T00:08:27;99398.44;;;11.43;nan
55685;BME280;41883;49.544;8.646;2023-04-24T00:10:52;99395.78;;;11.43;nan
55685;BME280;41883;49.544;8.646;2023-04-24T00:13:19;99395.16;;;11.41;nan
55685;BME280;41883;49.544;8.646;2023-04-24T00:15:45;99385.59;;;11.40;nan
55685;BME280;41883;49.544;8.646;2023-04-24T00:18:10;99384.38;;;11.42;nan
55685;BME280;41883;49.544;8.646;2023-04-24T00:20:35;99386.22;;;11.42;nan
55685;BME280;41883;49.544;8.646;2023-04-24T00:23:01;99387.41;;;11.39;nan
55685;BME280;41883;49.544;8.646;2023-04-24T00:25:26;99392.50;;;11.41;nan
55685;BME280;41883;49.544;8.646;2023-04-24T00:27:51;99393.31;;;11.41;nan
55685;BME280;41883;49.544;8.646;2023-04-24T00:30:16;99389.47;;;11.44;nan
55685;BME280;41883;49.544;8.646;2023-04-24T00:32:42;99390.13;;;11.46;nan
55685;BME280;41883;49.544;8.646;2023-04-24T00:35:08;99396.44;;;11.45;nan
55685;BME280;41883;49.544;8.646;2023-04-24T00:37:33;99386.00;;;11.43;nan
55685;BME280;41883;49.544;8.646;2023-04-24T00:39:58;99379.09;;;11.42;nan
55685;BME280;41883;49.544;8.646;2023-04-24T00:42:23;99381.28;;;11.39;nan
55685;BME280;41883;49.544;8.646;2023-04-24T00:44:49;99375.34;;;11.37;nan
55685;BME280;41883;49.544;8.646;2023-04-24T00:47:14;99377.66;;;11.40;nan
55685;BME280;41883;49.544;8.646;2023-04-24T00:49:40;99371.53;;;11.39;nan
55685;BME280;41883;49.544;8.646;2023-04-24T00:52:05;99377.66;;;11.40;nan
55685;BME280;41883;49.544;8.646;2023-04-24T00:54:33;99381.09;;;11.40;nan
55685;BME280;41883;49.544;8.646;2023-04-24T00:56:59;99383.75;;;11.40;nan
55685;BME280;41883;49.544;8.646;2023-04-24T00:59:25;99382.19;;;11.46;nan
55685;BME280;41883;49.544;8.646;2023-04-24T01:01:50;99390.31;;;11.44;nan
55685;BME280;41883;49.544;8.646;2023-04-24T01:04:16;99388.31;;;11.46;nan
55685;BME280;41883;49.544;8.646;2023-04-24T01:06:42;99395.06;;;11.49;nan
55685;BME280;41883;49.544;8.646;2023-04-24T01:09:11;99398.53;;;11.50;nan
55685;BME280;41883;49.544;8.646;2023-04-24T01:11:37;99398.97;;;11.53;nan
55685;BME280;41883;49.544;8.646;2023-04-24T01:14:03;99387.72;;;11.51;nan
55685;BME280;41883;49.544;8.646;2023-04-24T01:16:28;99389.00;;;11.55;nan
55685;BME280;41883;49.544;8.646;2023-04-24T01:18:53;99383.84;;;11.47;nan
55685;BME280;41883;49.544;8.646;2023-04-24T01:21:19;99381.44;;;11.52;nan
55685;BME280;41883;49.544;8.646;2023-04-24T01:23:46;99381.38;;;11.45;nan
55685;BME280;41883;49.544;8.646;2023-04-24T01:26:11;99375.25;;;11.45;nan
55685;BME280;41883;49.544;8.646;2023-04-24T01:28:37;99377.66;;;11.40;nan
55685;BME280;41883;49.544;8.646;2023-04-24T01:31:04;99385.38;;;11.41;nan
55685;BME280;41883;49.544;8.646;2023-04-24T01:33:30;99376.53;;;11.34;nan
55685;BME280;41883;49.544;8.646;2023-04-24T01:35:55;99373.88;;;11.34;nan
55685;BME280;41883;49.544;8.646;2023-04-24T01:38:21;99372.91;;;11.35;nan
55685;BME280;41883;49.544;8.646;2023-04-24T01:40:46;99375.94;;;11.32;nan
55685;BME280;41883;49.544;8.646;2023-04-24T01:43:12;99375.72;;;11.34;nan
55685;BME280;41883;49.544;8.646;2023-04-24T01:45:37;99372.25;;;11.33;nan
55685;BME280;41883;49.544;8.646;2023-04-24T01:48:03;99368.81;;;11.33;nan
55685;BME280;41883;49.544;8.646;2023-04-24T01:50:28;99364.97;;;11.35;nan
55685;BME280;41883;49.544;8.646;2023-04-24T01:52:53;99371.88;;;11.36;nan
55685;BME280;41883;49.544;8.646;2023-04-24T01:55:18;99365.59;;;11.37;nan
55685;BME280;41883;49.544;8.646;2023-04-24T01:57:43;99370.06;;;11.37;nan
55685;BME280;41883;49.544;8.646;2023-04-24T02:00:09;99368.88;;;11.39;nan
55685;BME280;41883;49.544;8.646;2023-04-24T02:02:36;99375.81;;;11.40;nan
55685;BME280;41883;49.544;8.646;2023-04-24T02:05:01;99361.13;;;11.38;nan
55685;BME280;41883;49.544;8.646;2023-04-24T02:07:27;99365.41;;;11.39;nan
55685;BME280;41883;49.544;8.646;2023-04-24T02:09:52;99364.75;;;11.37;nan
55685;BME280;41883;49.544;8.646;2023-04-24T02:12:18;99361.94;;;11.38;nan
55685;BME280;41883;49.544;8.646;2023-04-24T02:14:43;99361.13;;;11.38;nan
55685;BME280;41883;49.544;8.646;2023-04-24T02:17:09;99360.47;;;11.36;nan
55685;BME280;41883;49.544;8.646;2023-04-24T02:19:34;99360.47;;;11.36;nan
55685;BME280;41883;49.544;8.646;2023-04-24T02:21:59;99349.91;;;11.36;nan
55685;BME280;41883;49.544;8.646;2023-04-24T02:24:24;99354.00;;;11.38;nan
55685;BME280;41883;49.544;8.646;2023-04-24T02:26:50;99337.13;;;11.39;nan
55685;BME280;41883;49.544;8.646;2023-04-24T02:29:15;99351.81;;;11.42;nan
55685;BME280;41883;49.544;8.646;2023-04-24T02:31:40;99353.63;;;11.41;nan
55685;BME280;41883;49.544;8.646;2023-04-24T02:34:06;99349.72;;;11.37;nan
55685;BME280;41883;49.544;8.646;2023-04-24T02:36:31;99347.50;;;11.41;nan
55685;BME280;41883;49.544;8.646;2023-04-24T02:38:56;99345.88;;;11.40;nan
55685;BME280;41883;49.544;8.646;2023-04-24T02:41:21;99352.81;;;11.41;nan
55685;BME280;41883;49.544;8.646;2023-04-24T02:43:47;99351.19;;;11.40;nan
55685;BME280;41883;49.544;8.646;2023-04-24T02:46:12;99355.44;;;11.41;nan
55685;BME280;41883;49.544;8.646;2023-04-24T02:48:37;99358.47;;;11.38;nan
55685;BME280;41883;49.544;8.646;2023-04-24T02:51:02;99365.03;;;11.42;nan
55685;BME280;41883;49.544;8.646;2023-04-24T02:53:28;99376.19;;;11.37;nan
55685;BME280;41883;49.544;8.646;2023-04-24T02:55:54;99405.22;;;11.16;nan
55685;BME280;41883;49.544;8.646;2023-04-24T02:58:20;99429.94;;;10.93;nan
55685;BME280;41883;49.544;8.646;2023-04-24T03:00:45;99412.69;;;10.82;nan
55685;BME280;41883;49.544;8.646;2023-04-24T03:03:11;99417.22;;;10.59;nan
55685;BME280;41883;49.544;8.646;2023-04-24T03:05:37;99421.09;;;10.48;nan
55685;BME280;41883;49.544;8.646;2023-04-24T03:08:02;99430.59;;;10.34;nan
55685;BME280;41883;49.544;8.646;2023-04-24T03:10:27;99437.25;;;10.30;nan
55685;BME280;41883;49.544;8.646;2023-04-24T03:12:52;99422.72;;;10.26;nan
55685;BME280;41883;49.544;8.646;2023-04-24T03:15:17;99445.56;;;10.19;nan
55685;BME280;41883;49.544;8.646;2023-04-24T03:17:43;99426.13;;;10.12;nan
55685;BME280;41883;49.544;8.646;2023-04-24T03:20:08;99433.75;;;10.07;nan
55685;BME280;41883;49.544;8.646;2023-04-24T03:22:34;99438.41;;;10.05;nan
55685;BME280;41883;49.544;8.646;2023-04-24T03:24:59;99442.03;;;10.04;nan
55685;BME280;41883;49.544;8.646;2023-04-24T05:28:43;99562.78;;;9.87;nan
55685;BME280;41883;49.544;8.646;2023-04-24T05:31:08;99570.28;;;10.06;nan
55685;BME280;41883;49.544;8.646;2023-04-24T05:33:33;99572.31;;;10.27;nan
55685;BME280;41883;49.544;8.646;2023-04-24T05:35:58;99572.81;;;10.62;nan
55685;BME280;41883;49.544;8.646;2023-04-24T05:38:24;99577.31;;;10.84;nan
55685;BME280;41883;49.544;8.646;2023-04-24T05:40:49;99575.34;;;11.01;nan
55685;BME280;41883;49.544;8.646;2023-04-24T05:43:14;99582.13;;;11.19;nan
55685;BME280;41883;49.544;8.646;2023-04-24T05:45:40;99583.03;;;11.11;nan
55685;BME280;41883;49.544;8.646;2023-04-24T05:48:05;99575.59;;;10.92;nan
55685;BME280;41883;49.544;8.646;2023-04-24T05:50:30;99585.94;;;10.78;nan
55685;BME280;41883;49.544;8.646;2023-04-24T05:52:56;99588.50;;;10.87;nan
55685;BME280;41883;49.544;8.646;2023-04-24T05:55:23;99600.53;;;11.12;nan
55685;BME280;41883;49.544;8.646;2023-04-24T05:57:48;99611.38;;;11.40;nan
55685;BME280;41883;49.544;8.646;2023-04-24T06:00:13;99605.28;;;11.55;nan
55685;BME280;41883;49.544;8.646;2023-04-24T06:02:39;99603.72;;;11.45;nan
55685;BME280;41883;49.544;8.646;2023-04-24T06:05:04;99594.31;;;11.43;nan
55685;BME280;41883;49.544;8.646;2023-04-24T06:07:30;99603.66;;;11.68;nan
55685;BME280;41883;49.544;8.646;2023-04-24T06:09:56;99605.97;;;12.16;nan
55685;BME280;41883;49.544;8.646;2023-04-24T06:12:22;99603.56;;;12.36;nan
55685;BME280;41883;49.544;8.646;2023-04-24T06:14:47;99606.59;;;12.33;nan
55685;BME280;41883;49.544;8.646;2023-04-24T06:17:13;99611.72;;;12.20;nan
55685;BME280;41883;49.544;8.646;2023-04-24T06:19:38;99605.53;;;11.98;nan
55685;BME280;41883;49.544;8.646;2023-04-24T06:22:04;99610.53;;;11.78;nan
55685;BME280;41883;49.544;8.646;2023-04-24T06:24:29;99616.09;;;11.68;nan
55685;BME280;41883;49.544;8.646;2023-04-24T06:26:54;99609.94;;;11.53;nan
55685;BME280;41883;49.544;8.646;2023-04-24T06:29:19;99609.56;;;11.41;nan
55685;BME280;41883;49.544;8.646;2023-04-24T06:31:45;99618.94;;;11.29;nan
55685;BME280;41883;49.544;8.646;2023-04-24T06:34:10;99621.28;;;11.23;nan
55685;BME280;41883;49.544;8.646;2023-04-24T06:36:35;99614.72;;;11.19;nan
55685;BME280;41883;49.544;8.646;2023-04-24T06:39:01;99629.66;;;11.12;nan
55685;BME280;41883;49.544;8.646;2023-04-24T06:41:26;99627.53;;;11.08;nan
55685;BME280;41883;49.544;8.646;2023-04-24T06:43:51;99632.38;;;11.04;nan
55685;BME280;41883;49.544;8.646;2023-04-24T06:46:17;99637.03;;;10.94;nan
55685;BME280;41883;49.544;8.646;2023-04-24T06:48:42;99627.34;;;10.86;nan
55685;BME280;41883;49.544;8.646;2023-04-24T06:51:09;99628.25;;;10.78;nan
55685;BME280;41883;49.544;8.646;2023-04-24T06:53:38;99634.34;;;10.56;nan
55685;BME280;41883;49.544;8.646;2023-04-24T07:17:54;99657.72;;;10.28;nan
55685;BME280;41883;49.544;8.646;2023-04-24T07:20:19;99654.19;;;10.44;nan
55685;BME280;41883;49.544;8.646;2023-04-24T07:22:44;99660.41;;;10.59;nan
55685;BME280;41883;49.544;8.646;2023-04-24T07:25:09;99661.75;;;10.55;nan
55685;BME280;41883;49.544;8.646;2023-04-24T07:27:35;99677.97;;;10.52;nan
55685;BME280;41883;49.544;8.646;2023-04-24T07:30:03;99677.22;;;10.66;nan
55685;BME280;41883;49.544;8.646;2023-04-24T07:32:28;99673.63;;;11.36;nan
55685;BME280;41883;49.544;8.646;2023-04-24T07:34:54;99675.44;;;11.97;nan
55685;BME280;41883;49.544;8.646;2023-04-24T07:37:19;99665.22;;;12.60;nan
55685;BME280;41883;49.544;8.646;2023-04-24T07:39:45;99669.16;;;13.00;nan
55685;BME280;41883;49.544;8.646;2023-04-24T07:42:10;99659.31;;;12.79;nan
55685;BME280;41883;49.544;8.646;2023-04-24T07:44:35;99659.59;;;12.48;nan
55685;BME280;41883;49.544;8.646;2023-04-24T07:47:01;99657.31;;;12.15;nan
55685;BME280;41883;49.544;8.646;2023-04-24T07:49:26;99656.34;;;12.01;nan
55685;BME280;41883;49.544;8.646;2023-04-24T07:51:52;99653.38;;;11.96;nan
55685;BME280;41883;49.544;8.646;2023-04-24T07:54:18;99663.38;;;11.94;nan
55685;BME280;41883;49.544;8.646;2023-04-24T07:56:43;99665.75;;;12.04;nan
55685;BME280;41883;49.544;8.646;2023-04-24T07:59:08;99665.53;;;12.20;nan
55685;BME280;41883;49.544;8.646;2023-04-24T08:01:35;99671.56;;;12.29;nan
55685;BME280;41883;49.544;8.646;2023-04-24T08:04:00;99680.22;;;12.67;nan
55685;BME280;41883;49.544;8.646;2023-04-24T08:06:25;99678.38;;;13.04;nan
55685;BME280;41883;49.544;8.646;2023-04-24T08:08:55;99680.16;;;13.18;nan
55685;BME280;41883;49.544;8.646;2023-04-24T08:11:21;99683.16;;;13.30;nan
55685;BME280;41883;49.544;8.646;2023-04-24T08:13:46;99686.69;;;13.01;nan
55685;BME280;41883;49.544;8.646;2023-04-24T08:16:11;99687.34;;;12.67;nan
55685;BME280;41883;49.544;8.646;2023-04-24T08:18:36;99692.06;;;12.35;nan
55685;BME280;41883;49.544;8.646;2023-04-24T08:21:01;99697.53;;;12.19;nan
55685;BME280;41883;49.544;8.646;2023-04-24T08:23:27;99701.19;;;12.03;nan
55685;BME280;41883;49.544;8.646;2023-04-24T08:25:53;99701.19;;;12.03;nan
55685;BME280;41883;49.544;8.646;2023-04-24T08:28:18;99701.56;;;12.00;nan
55685;BME280;41883;49.544;8.646;2023-04-24T08:30:45;99708.31;;;12.02;nan
55685;BME280;41883;49.544;8.646;2023-04-24T08:33:10;99709.03;;;11.96;nan
55685;BME280;41883;49.544;8.646;2023-04-24T08:35:36;99718.53;;;11.67;nan
55685;BME280;41883;49.544;8.646;2023-04-24T08:38:01;99713.19;;;11.53;nan
55685;BME280;41883;49.544;8.646;2023-04-24T08:40:27;99704.50;;;11.44;nan
55685;BME280;41883;49.544;8.646;2023-04-24T08:42:54;99719.59;;;11.58;nan
55685;BME280;41883;49.544;8.646;2023-04-24T08:45:20;99724.56;;;11.61;nan
55685;BME280;41883;49.544;8.646;2023-04-24T08:47:45;99734.09;;;11.71;nan
55685;BME280;41883;49.544;8.646;2023-04-24T08:50:11;99738.94;;;11.82;nan
55685;BME280;41883;49.544;8.646;2023-04-24T08:52:37;99736.38;;;11.97;nan
55685;BME280;41883;49.544;8.646;2023-04-24T08:55:02;99734.38;;;12.43;nan
55685;BME280;41883;49.544;8.646;2023-04-24T08:57:28;99738.00;;;12.72;nan
55685;BME280;41883;49.544;8.646;2023-04-24T08:59:54;99740.50;;;12.73;nan
55685;BME280;41883;49.544;8.646;2023-04-24T09:02:19;99746.19;;;12.70;nan
55685;BME280;41883;49.544;8.646;2023-04-24T09:04:45;99748.38;;;12.52;nan
55685;BME280;41883;49.544;8.646;2023-04-24T09:07:12;99750.38;;;12.35;nan
55685;BME280;41883;49.544;8.646;2023-04-24T09:09:39;99748.81;;;12.26;nan
55685;BME280;41883;49.544;8.646;2023-04-24T09:12:05;99744.81;;;12.30;nan
55685;BME280;41883;49.544;8.646;2023-04-24T09:14:31;99749.63;;;12.41;nan
55685;BME280;41883;49.544;8.646;2023-04-24T09:16:56;99743.63;;;12.47;nan
55685;BME280;41883;49.544;8.646;2023-04-24T09:19:23;99748.56;;;12.36;nan
55685;BME280;41883;49.544;8.646;2023-04-24T09:21:48;99749.91;;;12.17;nan
55685;BME280;41883;49.544;8.646;2023-04-24T09:24:15;99758.66;;;12.02;nan
55685;BME280;41883;49.544;8.646;2023-04-24T09:26:42;99760.97;;;11.82;nan
55685;BME280;41883;49.544;8.646;2023-04-24T09:29:08;99757.84;;;11.79;nan
55685;BME280;41883;49.544;8.646;2023-04-24T09:31:38;99763.63;;;11.82;nan
55685;BME280;41883;49.544;8.646;2023-04-24T09:34:04;99768.91;;;11.82;nan
55685;BME280;41883;49.544;8.646;2023-04-24T09:36:33;99767.72;;;11.85;nan
55685;BME280;41883;49.544;8.646;2023-04-24T09:39:00;99772.44;;;11.98;nan
55685;BME280;41883;49.544;8.646;2023-04-24T09:41:28;99781.94;;;11.92;nan
55685;BME280;41883;49.544;8.646;2023-04-24T09:43:55;99785.16;;;12.02;nan
55685;BME280;41883;49.544;8.646;2023-04-24T09:46:30;99781.56;;;11.95;nan
55685;BME280;41883;49.544;8.646;2023-04-24T09:48:58;99785.03;;;11.96;nan
55685;BME280;41883;49.544;8.646;2023-04-24T09:51:36;99787.88;;;11.94;nan
55685;BME280;41883;49.544;8.646;2023-04-24T09:54:01;99791.91;;;12.05;nan
55685;BME280;41883;49.544;8.646;2023-04-24T09:56:27;99787.16;;;12.00;nan
55685;BME280;41883;49.544;8.646;2023-04-24T09:58:53;99800.25;;;12.02;nan
55685;BME280;41883;49.544;8.646;2023-04-24T10:01:32;99794.56;;;12.05;nan
55685;BME280;41883;49.544;8.646;2023-04-24T10:03:58;99792.19;;;11.95;nan
55685;BME280;41883;49.544;8.646;2023-04-24T10:06:29;99795.97;;;11.69;nan
55685;BME280;41883;49.544;8.646;2023-04-24T10:08:55;99806.28;;;11.64;nan
55685;BME280;41883;49.544;8.646;2023-04-24T10:11:27;99806.88;;;11.52;nan
55685;BME280;41883;49.544;8.646;2023-04-24T10:13:53;99813.16;;;11.51;nan
55685;BME280;41883;49.544;8.646;2023-04-24T10:16:18;99811.38;;;11.43;nan
55685;BME280;41883;49.544;8.646;2023-04-24T10:18:44;99813.44;;;11.56;nan
55685;BME280;41883;49.544;8.646;2023-04-24T10:21:10;99815.56;;;11.60;nan
55685;BME280;41883;49.544;8.646;2023-04-24T10:23:35;99819.88;;;11.61;nan
55685;BME280;41883;49.544;8.646;2023-04-24T10:26:01;99817.22;;;11.84;nan
55685;BME280;41883;49.544;8.646;2023-04-24T10:28:26;99822.03;;;11.89;nan
55685;BME280;41883;49.544;8.646;2023-04-24T10:30:54;99818.94;;;12.00;nan
55685;BME280;41883;49.544;8.646;2023-04-24T10:33:21;99819.31;;;11.97;nan
55685;BME280;41883;49.544;8.646;2023-04-24T10:35:48;99821.06;;;12.05;nan
55685;BME280;41883;49.544;8.646;2023-04-24T10:38:16;99818.41;;;12.28;nan
55685;BME280;41883;49.544;8.646;2023-04-24T10:40:45;99822.16;;;13.08;nan
55685;BME280;41883;49.544;8.646;2023-04-24T10:43:10;99818.25;;;14.26;nan
55685;BME280;41883;49.544;8.646;2023-04-24T10:45:36;99816.25;;;15.53;nan
55685;BME280;41883;49.544;8.646;2023-04-24T10:48:06;99829.88;;;16.11;nan
55685;BME280;41883;49.544;8.646;2023-04-24T10:50:43;99825.13;;;15.80;nan
55685;BME280;41883;49.544;8.646;2023-04-24T10:53:13;99830.88;;;15.15;nan
55685;BME280;41883;49.544;8.646;2023-04-24T10:55:43;99832.22;;;14.56;nan
55685;BME280;41883;49.544;8.646;2023-04-24T10:58:09;99844.97;;;13.96;nan
55685;BME280;41883;49.544;8.646;2023-04-24T11:00:38;99843.75;;;13.56;nan
55685;BME280;41883;49.544;8.646;2023-04-24T11:05:56;99840.91;;;12.91;nan
55685;BME280;41883;49.544;8.646;2023-04-24T11:08:23;99851.09;;;12.88;nan
55685;BME280;41883;49.544;8.646;2023-04-24T11:11:02;99856.19;;;12.74;nan
55685;BME280;41883;49.544;8.646;2023-04-24T11:16:31;99854.66;;;12.80;nan
55685;BME280;41883;49.544;8.646;2023-04-24T11:19:06;99844.00;;;12.50;nan
55685;BME280;41883;49.544;8.646;2023-04-24T11:21:33;99852.22;;;12.41;nan
55685;BME280;41883;49.544;8.646;2023-04-24T11:29:43;99848.56;;;12.42;nan
55685;BME280;41883;49.544;8.646;2023-04-24T11:32:22;99852.31;;;12.32;nan
55685;BME280;41883;49.544;8.646;2023-04-24T11:34:50;99855.38;;;12.21;nan
55685;BME280;41883;49.544;8.646;2023-04-24T11:37:17;99855.09;;;12.16;nan
55685;BME280;41883;49.544;8.646;2023-04-24T11:39:42;99853.81;;;12.12;nan
55685;BME280;41883;49.544;8.646;2023-04-24T11:42:10;99854.19;;;12.09;nan
55685;BME280;41883;49.544;8.646;2023-04-24T11:44:39;99862.59;;;12.27;nan
55685;BME280;41883;49.544;8.646;2023-04-24T11:47:05;99856.91;;;12.53;nan
55685;BME280;41883;49.544;8.646;2023-04-24T11:49:30;99865.81;;;12.75;nan
55685;BME280;41883;49.544;8.646;2023-04-24T11:51:55;99862.03;;;12.70;nan
55685;BME280;41883;49.544;8.646;2023-04-24T11:54:21;99869.66;;;12.73;nan
55685;BME280;41883;49.544;8.646;2023-04-24T11:56:48;99868.19;;;12.85;nan
55685;BME280;41883;49.544;8.646;2023-04-24T11:59:14;99865.81;;;13.05;nan
55685;BME280;41883;49.544;8.646;2023-04-24T12:01:45;99862.94;;;13.22;nan
55685;BME280;41883;49.544;8.646;2023-04-24T12:04:11;99863.59;;;13.24;nan
55685;BME280;41883;49.544;8.646;2023-04-24T12:06:36;99865.09;;;13.11;nan
55685;BME280;41883;49.544;8.646;2023-04-24T12:09:02;99870.28;;;13.05;nan
55685;BME280;41883;49.544;8.646;2023-04-24T12:11:30;99863.69;;;13.15;nan
55685;BME280;41883;49.544;8.646;2023-04-24T12:13:55;99867.78;;;13.48;nan
55685;BME280;41883;49.544;8.646;2023-04-24T12:16:22;99866.31;;;13.81;nan
55685;BME280;41883;49.544;8.646;2023-04-24T12:18:47;99854.34;;;14.35;nan
55685;BME280;41883;49.544;8.646;2023-04-24T12:21:16;99853.63;;;14.76;nan
55685;BME280;41883;49.544;8.646;2023-04-24T12:23:42;99855.06;;;14.79;nan
55685;BME280;41883;49.544;8.646;2023-04-24T12:26:08;99853.38;;;15.13;nan
55685;BME280;41883;49.544;8.646;2023-04-24T12:28:36;99847.66;;;15.16;nan
55685;BME280;41883;49.544;8.646;2023-04-24T12:31:02;99841.88;;;15.05;nan
55685;BME280;41883;49.544;8.646;2023-04-24T12:33:27;99851.22;;;14.88;nan
55685;BME280;41883;49.544;8.646;2023-04-24T12:35:54;99857.72;;;14.51;nan
55685;BME280;41883;49.544;8.646;2023-04-24T12:38:24;99866.66;;;14.43;nan
55685;BME280;41883;49.544;8.646;2023-04-24T12:41:01;99868.28;;;14.16;nan
55685;BME280;41883;49.544;8.646;2023-04-24T12:43:28;99865.00;;;13.92;nan
55685;BME280;41883;49.544;8.646;2023-04-24T12:45:53;99868.22;;;13.66;nan
55685;BME280;41883;49.544;8.646;2023-04-24T12:48:22;99877.97;;;13.29;nan
55685;BME280;41883;49.544;8.646;2023-04-24T12:50:57;99870.56;;;13.10;nan
55685;BME280;41883;49.544;8.646;2023-04-24T12:53:25;99873.78;;;12.90;nan
55685;BME280;41883;49.544;8.646;2023-04-24T12:55:52;99875.50;;;12.83;nan
55685;BME280;41883;49.544;8.646;2023-04-24T12:58:20;99884.28;;;12.84;nan
55685;BME280;41883;49.544;8.646;2023-04-24T13:03:14;99874.75;;;12.89;nan
55685;BME280;41883;49.544;8.646;2023-04-24T13:05:40;99871.22;;;12.97;nan
55685;BME280;41883;49.544;8.646;2023-04-24T13:08:05;99866.34;;;13.01;nan
55685;BME280;41883;49.544;8.646;2023-04-24T13:10:34;99873.22;;;13.10;nan
55685;BME280;41883;49.544;8.646;2023-04-24T13:12:59;99870.66;;;13.02;nan
55685;BME280;41883;49.544;8.646;2023-04-24T13:18:13;99866.81;;;12.74;nan
55685;BME280;41883;49.544;8.646;2023-04-24T13:20:38;99876.50;;;12.82;nan
55685;BME280;41883;49.544;8.646;2023-04-24T13:23:07;99885.47;;;12.81;nan
55685;BME280;41883;49.544;8.646;2023-04-24T13:25:34;99881.38;;;12.79;nan
55685;BME280;41883;49.544;8.646;2023-04-24T13:28:01;99877.06;;;12.78;nan
55685;BME280;41883;49.544;8.646;2023-04-24T13:30:26;99879.72;;;12.92;nan
55685;BME280;41883;49.544;8.646;2023-04-24T13:32:52;99874.50;;;13.14;nan
55685;BME280;41883;49.544;8.646;2023-04-24T13:35:18;99880.59;;;13.44;nan
55685;BME280;41883;49.544;8.646;2023-04-24T13:37:43;99880.84;;;13.64;nan
55685;BME280;41883;49.544;8.646;2023-04-24T13:40:08;99878.66;;;14.11;nan
55685;BME280;41883;49.544;8.646;2023-04-24T13:42:34;99874.25;;;14.46;nan
55685;BME280;41883;49.544;8.646;2023-04-24T13:44:59;99871.19;;;14.71;nan
55685;BME280;41883;49.544;8.646;2023-04-24T13:47:24;99866.41;;;14.59;nan
55685;BME280;41883;49.544;8.646;2023-04-24T13:49:51;99865.75;;;14.08;nan
55685;BME280;41883;49.544;8.646;2023-04-24T13:52:16;99872.66;;;14.02;nan
55685;BME280;41883;49.544;8.646;2023-04-24T13:54:41;99871.63;;;14.24;nan
55685;BME280;41883;49.544;8.646;2023-04-24T13:57:07;99863.75;;;14.38;nan
55685;BME280;41883;49.544;8.646;2023-04-24T13:59:32;99863.06;;;14.29;nan
55685;BME280;41883;49.544;8.646;2023-04-24T14:01:57;99869.47;;;14.13;nan
55685;BME280;41883;49.544;8.646;2023-04-24T14:04:22;99866.00;;;14.13;nan
55685;BME280;41883;49.544;8.646;2023-04-24T14:06:47;99869.28;;;13.93;nan
55685;BME280;41883;49.544;8.646;2023-04-24T14:09:13;99866.00;;;13.91;nan
55685;BME280;41883;49.544;8.646;2023-04-24T14:11:38;99874.28;;;13.81;nan
55685;BME280;41883;49.544;8.646;2023-04-24T14:14:03;99873.97;;;13.70;nan
55685;BME280;41883;49.544;8.646;2023-04-24T14:16:31;99873.50;;;13.45;nan
55685;BME280;41883;49.544;8.646;2023-04-24T14:18:56;99891.53;;;13.34;nan
55685;BME280;41883;49.544;8.646;2023-04-24T14:21:21;99873.22;;;13.40;nan
55685;BME280;41883;49.544;8.646;2023-04-24T14:23:47;99885.75;;;13.46;nan
55685;BME280;41883;49.544;8.646;2023-04-24T14:26:12;99881.97;;;13.55;nan
55685;BME280;41883;49.544;8.646;2023-04-24T14:28:37;99878.28;;;13.56;nan
55685;BME280;41883;49.544;8.646;2023-04-24T14:31:03;99879.69;;;13.52;nan
55685;BME280;41883;49.544;8.646;2023-04-24T14:33:29;99874.56;;;13.50;nan
55685;BME280;41883;49.544;8.646;2023-04-24T14:35:54;99871.38;;;13.25;nan
55685;BME280;41883;49.544;8.646;2023-04-24T14:38:20;99873.41;;;13.23;nan
55685;BME280;41883;49.544;8.646;2023-04-24T14:40:45;99879.91;;;13.21;nan
55685;BME280;41883;49.544;8.646;2023-04-24T14:43:10;99874.34;;;13.30;nan
55685;BME280;41883;49.544;8.646;2023-04-24T14:45:36;99871.53;;;13.53;nan
55685;BME280;41883;49.544;8.646;2023-04-24T14:48:01;99862.19;;;14.00;nan
55685;BME280;41883;49.544;8.646;2023-04-24T14:50:27;99877.88;;;14.60;nan
55685;BME280;41883;49.544;8.646;2023-04-24T14:52:53;99873.59;;;15.00;nan
55685;BME280;41883;49.544;8.646;2023-04-24T14:55:18;99870.88;;;15.28;nan
55685;BME280;41883;49.544;8.646;2023-04-24T14:57:43;99867.78;;;15.25;nan
55685;BME280;41883;49.544;8.646;2023-04-24T15:00:09;99876.53;;;15.12;nan
55685;BME280;41883;49.544;8.646;2023-04-24T15:02:35;99873.03;;;15.05;nan
55685;BME280;41883;49.544;8.646;2023-04-24T15:05:02;99873.53;;;14.87;nan
55685;BME280;41883;49.544;8.646;2023-04-24T15:07:30;99870.63;;;14.82;nan
55685;BME280;41883;49.544;8.646;2023-04-24T15:09:56;99884.13;;;14.52;nan
55685;BME280;41883;49.544;8.646;2023-04-24T15:12:21;99877.63;;;14.55;nan
55685;BME280;41883;49.544;8.646;2023-04-24T15:14:46;99882.22;;;14.46;nan
55685;BME280;41883;49.544;8.646;2023-04-24T15:17:11;99884.66;;;14.19;nan
55685;BME280;41883;49.544;8.646;2023-04-24T15:19:36;99894.28;;;13.99;nan
55685;BME280;41883;49.544;8.646;2023-04-24T15:22:02;99892.31;;;13.86;nan
55685;BME280;41883;49.544;8.646;2023-04-24T15:24:27;99890.50;;;13.50;nan
55685;BME280;41883;49.544;8.646;2023-04-24T15:26:52;99898.88;;;13.32;nan
55685;BME280;41883;49.544;8.646;2023-04-24T15:29:18;99901.97;;;13.21;nan
55685;BME280;41883;49.544;8.646;2023-04-24T15:31:43;99896.13;;;13.11;nan
55685;BME280;41883;49.544;8.646;2023-04-24T15:34:08;99891.72;;;13.18;nan
55685;BME280;41883;49.544;8.646;2023-04-24T15:36:34;99893.72;;;13.46;nan
55685;BME280;41883;49.544;8.646;2023-04-24T15:39:00;99885.41;;;13.70;nan
55685;BME280;41883;49.544;8.646;2023-04-24T15:41:25;99884.53;;;13.85;nan
55685;BME280;41883;49.544;8.646;2023-04-24T15:43:50;99893.41;;;14.13;nan
55685;BME280;41883;49.544;8.646;2023-04-24T15:46:16;99896.78;;;14.50;nan
55685;BME280;41883;49.544;8.646;2023-04-24T15:48:41;99890.59;;;14.64;nan
55685;BME280;41883;49.544;8.646;2023-04-24T15:51:07;99906.53;;;14.93;nan
55685;BME280;41883;49.544;8.646;2023-04-24T15:53:32;99890.63;;;15.47;nan
55685;BME280;41883;49.544;8.646;2023-04-24T15:55:57;99898.00;;;16.07;nan